Latest Weather Observations for Viewbank

IDV60901

Issued at 4:15 pm EDT Tuesday 21 October 2014 (issued every 10 minutes, with the page automatically refreshed every 10 minutes)

About weather observations | Map of Melbourne area stations | Latest observations for Melbourne area | Other Formats
Station Details ID: 086068 Name: VIEWBANK Lat: -37.74 Lon: 145.10 Height: 66.1 m
Data from the previous 72 hours. | See also: Recent months at Viewbank
Date/Time
EDT
Tmp

°C
App
Tmp
°C
Dew
Point
°C
Rel
Hum
%
Delta-T

°C
Wind Press
QNH
hPa
Press
MSL
hPa
Rain
since
9 am
mm
Dir
 
Spd
km/h
Gust
km/h
Spd
kts
Gust
kts
21/04:00pm 27.3 25.7 8.7 31 10.1 NW 7 13 4 7 1022.6 1022.6 0.0
21/03:30pm 27.0 25.2 9.4 33 9.7 ENE 9 15 5 8 1022.9 1022.9 0.0
21/03:00pm 26.8 25.2 8.7 32 9.8 NNE 7 13 4 7 1023.4 1023.4 0.0
21/02:30pm 26.3 25.0 10.0 36 9.1 NE 7 17 4 9 1023.9 1023.9 0.0
21/02:00pm 26.5 25.5 10.2 36 9.1 ENE 6 7 3 4 1024.4 1024.4 0.0
21/01:30pm 25.4 24.1 11.2 41 8.0 N 9 17 5 9 1024.8 1024.8 0.0
21/01:00pm 24.5 22.7 10.8 42 7.6 NNW 11 19 6 10 1025.3 1025.3 0.0
21/12:30pm 24.3 22.1 9.5 39 8.1 NNE 11 24 6 13 1025.5 1025.5 0.0
21/12:00pm 22.4 21.2 10.2 46 6.6 E 7 15 4 8 1025.9 1025.9 0.0
21/11:30am 21.0 19.4 10.2 50 5.9 ENE 9 13 5 7 1026.5 1026.5 0.0
21/11:00am 18.9 17.7 9.4 54 5.0 NNE 6 7 3 4 1027.0 1027.0 0.0
21/10:30am 17.5 16.4 9.9 61 4.0 E 6 9 3 5 1027.2 1027.2 0.0
21/10:00am 15.7 13.8 8.9 64 3.5 ENE 9 13 5 7 1027.6 1027.6 0.0
21/09:30am 13.9 11.9 8.5 70 2.7 E 9 15 5 8 1027.6 1027.6 0.0
21/09:00am 12.1 9.6 8.2 77 1.9 E 11 17 6 9 1027.6 1027.6 0.0
21/08:30am 10.8 9.3 8.6 86 1.1 E 6 9 3 5 1027.6 1027.6 0.0
21/08:00am 9.0 7.6 8.9 99 0.0 ENE 6 7 3 4 1027.2 1027.2 0.0
21/07:30am 6.8 4.9 6.8 100 0.0 ENE 6 7 3 4 1027.1 1027.1 0.0
21/07:00am 5.3 4.2 5.3 100 0.0 CALM 0 7 0 4 1026.8 1026.8 0.0
21/06:30am 5.5 4.1 5.4 99 0.0 NNE 2 6 1 3 1026.7 1026.7 0.0
21/06:00am 5.7 4.7 5.6 99 0.0 NNE 0 0 0 0 1026.4 1026.4 0.0
21/05:30am 5.9 4.2 5.8 99 0.0 NNE 4 7 2 4 1026.2 1026.2 0.0
21/05:00am 6.2 5.3 6.1 99 0.0 CALM 0 6 0 3 1026.2 1026.2 0.0
21/04:30am 6.6 5.8 6.5 99 0.0 CALM 0 0 0 0 1026.3 1026.3 0.0
21/04:00am 7.0 5.1 6.9 99 0.0 N 6 7 3 4 1026.5 1026.5 0.0
21/03:30am 7.4 6.8 7.3 99 0.0 CALM 0 0 0 0 1026.3 1026.3 0.0
21/03:00am 7.7 6.2 7.0 95 0.3 N 4 6 2 3 1026.4 1026.4 0.0
21/02:30am 8.0 7.0 7.4 96 0.3 NNE 2 7 1 4 1026.5 1026.5 0.0
21/02:00am 8.4 6.6 7.0 91 0.6 NNE 6 7 3 4 1026.7 1026.7 0.0
21/01:30am 9.1 7.2 7.7 91 0.7 N 7 11 4 6 1026.9 1026.9 0.0
21/01:00am 9.2 7.9 7.5 89 0.8 N 4 7 2 4 1027.0 1027.0 0.0
21/12:30am 9.8 9.2 7.4 85 1.1 CALM 0 0 0 0 1027.1 1027.1 0.0
21/12:00am 10.4 9.7 6.9 79 1.6 WSW 0 0 0 0 1027.2 1027.2 0.0
 
Date/Time
EDT
Tmp

°C
App
Tmp
°C
Dew
Point
°C
Rel
Hum
%
Delta-T

°C
Wind Press
QNH
hPa
Press
MSL
hPa
Rain
since
9 am
mm
Dir
 
Spd
km/h
Gust
km/h
Spd
kts
Gust
kts
20/11:30pm 11.0 9.2 7.1 77 1.9 WSW 6 6 3 3 1027.3 1027.3 0.0
20/11:00pm 11.4 9.6 7.3 76 2.0 SW 6 6 3 3 1027.3 1027.3 0.0
20/10:30pm 11.7 9.7 7.0 73 2.3 SSW 7 7 4 4 1027.2 1027.2 0.0
20/10:00pm 12.2 10.4 7.1 71 2.4 SSW 6 9 3 5 1027.3 1027.3 0.0
20/09:30pm 12.9 11.0 7.4 69 2.7 SSW 7 11 4 6 1027.2 1027.2 0.0
20/09:00pm 13.7 11.5 7.7 67 2.9 SSW 9 15 5 8 1027.1 1027.1 0.0
20/08:30pm 14.0 11.7 7.5 65 3.2 S 9 13 5 7 1026.6 1026.6 0.0
20/08:00pm 14.9 12.7 7.7 62 3.6 S 9 15 5 8 1026.5 1026.5 0.0
20/07:30pm 16.3 14.1 7.8 57 4.3 S 9 24 5 13 1026.3 1026.3 0.0
20/07:00pm 17.4 14.0 7.7 53 4.9 S 15 26 8 14 1026.1 1026.1 0.0
20/06:30pm 18.5 15.3 7.0 47 5.8 SSE 13 26 7 14 1026.1 1026.1 0.0
20/06:00pm 19.1 15.9 6.9 45 6.1 SSE 13 19 7 10 1026.2 1026.2 0.0
20/05:30pm 19.7 16.4 6.4 42 6.7 SSE 13 24 7 13 1026.2 1026.2 0.0
20/05:00pm 20.0 16.5 7.1 43 6.5 S 15 28 8 15 1026.2 1026.2 0.0
20/04:30pm 20.1 15.5 5.7 39 7.1 S 19 30 10 16 1026.4 1026.4 0.0
20/04:00pm 20.1 16.7 5.7 39 7.1 SE 13 32 7 17 1026.5 1026.5 0.0
20/03:30pm 19.8 16.4 5.8 40 6.9 SSE 13 30 7 16 1026.7 1026.7 0.0
20/03:00pm 19.9 15.7 5.5 39 7.1 S 17 32 9 17 1027.0 1027.0 0.0
20/02:30pm 19.5 15.9 5.2 39 7.0 ESE 13 24 7 13 1027.4 1027.4 0.0
20/02:00pm 18.6 14.1 4.4 39 6.7 SE 17 22 9 12 1027.8 1027.8 0.0
20/01:30pm 18.6 15.2 5.8 43 6.3 SSE 13 20 7 11 1028.1 1028.0 0.0
20/01:00pm 17.8 13.7 4.4 41 6.3 SSE 15 22 8 12 1028.3 1028.2 0.0
20/12:30pm 17.4 12.8 5.7 46 5.7 S 19 28 10 15 1028.7 1028.6 0.0
20/12:00pm 16.9 12.1 4.6 44 5.8 S 19 28 10 15 1029.0 1028.9 0.0
20/11:30am 15.7 11.3 2.8 42 5.8 SE 15 30 8 16 1029.5 1029.4 0.0
20/11:00am 15.2 11.0 3.7 46 5.2 SSE 15 26 8 14 1029.7 1029.6 0.0
20/10:30am 14.7 10.3 4.7 51 4.7 SSE 17 32 9 17 1029.9 1029.8 0.0
20/10:00am 13.9 10.2 4.2 52 4.4 SSE 13 24 7 13 1030.1 1030.1 0.0
20/09:30am 13.1 8.4 3.2 51 4.4 SE 17 30 9 16 1030.3 1030.3 0.0
20/09:00am 12.1 7.9 3.6 56 3.8 SSE 15 26 8 14 1030.2 1030.2 0.0
20/08:30am 11.3 7.2 4.1 61 3.2 SSE 15 26 8 14 1030.0 1029.9 0.0
20/08:00am 10.9 7.6 4.6 65 2.8 SSE 11 22 6 12 1030.1 1030.1 0.0
20/07:30am 10.0 7.1 4.4 68 2.5 S 9 19 5 10 1029.8 1029.7 0.0
20/07:00am 9.2 6.3 4.6 73 2.0 S 9 15 5 8 1029.6 1029.5 0.0
20/06:30am 9.2 6.4 5.2 76 1.8 SSE 9 20 5 11 1029.6 1029.5 0.0
20/06:00am 9.6 6.7 6.3 80 1.5 SSE 11 20 6 11 1029.1 1029.0 0.0
20/05:30am 9.8 7.4 7.2 84 1.2 SSE 9 17 5 9 1029.1 1029.0 0.0
20/05:00am 10.0 7.8 7.8 86 1.1 SSE 9 19 5 10 1028.8 1028.7 0.0
20/04:30am 10.4 7.7 7.5 82 1.4 SSE 11 20 6 11 1028.8 1028.7 0.0
20/04:00am 11.0 8.7 9.1 88 0.9 SE 11 32 6 17 1028.8 1028.7 0.0
20/03:30am 11.0 8.9 9.6 91 0.7 SE 11 22 6 12 1028.7 1028.6 0.0
20/03:00am 10.9 8.7 9.5 91 0.7 SE 11 20 6 11 1028.8 1028.7 0.0
20/02:30am 12.1 9.6 8.2 77 1.9 SSE 11 19 6 10 1028.9 1028.8 0.0
20/02:00am 12.1 9.6 8.2 77 1.9 SSE 11 20 6 11 1028.8 1028.7 0.0
20/01:30am 12.0 9.3 8.8 81 1.6 SSE 13 22 7 12 1029.0 1028.9 0.0
20/01:00am 11.9 8.9 9.3 84 1.3 S 15 24 8 13 1029.0 1028.9 0.0
20/12:30am 12.4 10.0 10.1 86 1.2 S 13 24 7 13 1028.9 1028.8 0.0
20/12:00am 12.7 10.3 10.2 85 1.3 S 13 22 7 12 1028.8 1028.7 0.0
 
Date/Time
EDT
Tmp

°C
App
Tmp
°C
Dew
Point
°C
Rel
Hum
%
Delta-T

°C
Wind Press
QNH
hPa
Press
MSL
hPa
Rain
since
9 am
mm
Dir
 
Spd
km/h
Gust
km/h
Spd
kts
Gust
kts
19/11:30pm 13.2 10.9 10.6 84 1.4 S 13 20 7 11 1028.6 1028.5 0.0
19/11:00pm 14.0 12.3 11.3 84 1.4 S 11 19 6 10 1028.2 1028.1 0.0
19/10:30pm 14.1 12.7 10.9 81 1.7 S 9 15 5 8 1027.7 1027.7 0.0
19/10:00pm 14.3 10.7 10.7 79 1.9 SSW 20 28 11 15 1027.8 1027.8 0.0
19/09:30pm 14.5 11.1 10.5 77 2.1 SSW 19 28 10 15 1027.7 1027.7 0.0
19/09:00pm 14.6 11.9 10.4 76 2.2 SSW 15 22 8 12 1026.7 1026.7 0.0
19/08:30pm 14.6 12.2 11.4 81 1.7 S 15 24 8 13 1026.1 1026.1 0.0
19/08:00pm 14.7 12.0 11.7 82 1.6 S 17 30 9 16 1025.5 1025.5 0.0
19/07:30pm 14.8 12.0 11.4 80 1.8 SSW 17 26 9 14 1025.1 1025.1 0.0
19/07:00pm 15.0 11.5 11.0 77 2.1 SSW 20 35 11 19 1024.7 1024.7 0.0
19/06:30pm 15.3 11.0 10.9 75 2.3 SSW 24 39 13 21 1023.5 1023.5 0.0
19/06:00pm 15.6 11.8 11.2 75 2.4 SSW 22 37 12 20 1022.6 1022.6 0.0
19/05:30pm 16.0 11.4 12.2 78 2.1 SSW 28 41 15 22 1021.5 1021.5 0.0
19/05:00pm 18.0 14.7 11.6 66 3.5 SSW 20 33 11 18 1020.3 1020.3 0.0
19/04:30pm 22.0 18.1 10.8 49 6.2 SW 22 33 12 18 1019.4 1019.4 0.0
19/04:28pm 23.0 19.4 10.4 45 6.9 WSW 20 32 11 17 1019.4 1019.4 0.0
19/04:00pm 28.4 22.8 5.3 23 12.0 N 24 44 13 24 1018.5 1018.5 0.0
19/03:30pm 28.3 24.0 7.0 26 11.4 N 19 28 10 15 1018.9 1018.9 0.0
19/03:00pm 28.1 23.6 6.8 26 11.3 N 20 33 11 18 1019.1 1019.1 0.0
19/02:30pm 27.6 22.7 6.9 27 11.0 N 22 35 12 19 1019.4 1019.4 0.0
19/02:00pm 26.7 21.4 5.1 25 11.0 N 22 35 12 19 1020.1 1020.1 0.0
19/01:30pm 26.6 21.3 5.0 25 11.0 N 22 41 12 22 1019.9 1019.9 0.0
19/01:00pm 26.4 21.4 4.8 25 11.0 N 20 37 11 20 1020.3 1020.3 0.0
19/12:30pm 25.5 18.9 4.0 25 10.7 N 28 46 15 25 1020.3 1020.3 0.0
19/12:11pm 26.0 19.2 3.3 23 11.2 N 28 46 15 25 1020.4 1020.4 0.0
19/12:00pm 26.8 21.0 4.6 24 11.2 N 24 44 13 24 1020.4 1020.4 0.0
19/11:30am 26.8 21.2 3.3 22 11.7 N 22 41 12 22 1020.6 1020.6 0.0
19/11:00am 24.6 19.1 3.8 26 10.2 N 22 43 12 23 1020.9 1020.9 0.0
19/10:30am 24.9 20.1 4.6 27 10.2 N 19 33 10 18 1021.3 1021.3 0.0
19/10:00am 23.4 18.5 4.9 30 9.2 N 20 39 11 21 1021.6 1021.6 0.0
19/09:30am 23.1 17.2 4.1 29 9.3 N 24 46 13 25 1021.8 1021.8 0.0
19/09:00am 23.4 18.9 4.4 29 9.4 NNE 17 24 9 13 1021.9 1021.9 0.0
19/08:30am 22.2 19.0 5.2 33 8.5 NE 11 20 6 11 1021.7 1021.7 0.0
19/08:00am 21.0 18.3 5.8 37 7.6 NE 9 19 5 10 1021.5 1021.5 0.0
19/07:30am 19.7 17.4 5.0 38 7.2 NE 6 13 3 7 1020.9 1020.9 0.0
19/07:00am 18.0 16.0 4.6 41 6.4 NE 4 9 2 5 1020.5 1020.5 0.0
19/06:30am 18.1 15.8 4.7 41 6.4 NE 6 9 3 5 1020.4 1020.4 0.0
19/06:00am 18.2 16.6 4.7 41 6.5 NNE 2 6 1 3 1020.5 1020.5 0.0
19/05:30am 18.3 16.1 5.2 42 6.4 NE 6 7 3 4 1020.5 1020.5 0.0
19/05:00am 18.3 15.8 4.8 41 6.5 ENE 7 9 4 5 1020.4 1020.4 0.0
19/04:30am 18.7 15.4 4.8 40 6.7 NE 11 17 6 9 1020.5 1020.5 0.0
19/04:00am 18.3 15.9 5.2 42 6.3 ENE 7 11 4 6 1020.5 1020.5 0.0
19/03:30am 17.5 14.8 5.8 46 5.7 NE 9 13 5 7 1020.6 1020.6 0.0
19/03:00am 17.2 14.9 5.8 47 5.5 NE 7 13 4 7 1020.9 1020.9 0.0
19/02:30am 17.2 15.1 5.8 47 5.6 NE 6 9 3 5 1021.0 1021.0 0.0
19/02:00am 16.8 14.8 6.3 50 5.1 ENE 6 9 3 5 1021.3 1021.3 0.0
19/01:30am 16.8 15.1 6.0 49 5.3 NE 4 9 2 5 1021.5 1021.5 0.0
19/01:00am 15.8 13.4 6.8 55 4.4 ENE 9 11 5 6 1021.6 1021.6 0.0
19/12:30am 16.1 13.6 6.5 53 4.7 ENE 9 11 5 6 1021.9 1021.9 0.0
19/12:00am 16.3 13.8 6.7 53 4.7 ENE 9 13 5 7 1022.0 1022.0 0.0
 
Date/Time
EDT
Tmp

°C
App
Tmp
°C
Dew
Point
°C
Rel
Hum
%
Delta-T

°C
Wind Press
QNH
hPa
Press
MSL
hPa
Rain
since
9 am
mm
Dir
 
Spd
km/h
Gust
km/h
Spd
kts
Gust
kts
18/11:30pm 16.5 13.3 6.9 53 4.8 ENE 13 19 7 10 1022.3 1022.3 0.0
18/11:00pm 17.0 13.8 6.8 51 5.0 ENE 13 19 7 10 1022.5 1022.5 0.0
18/10:30pm 17.7 15.1 5.9 46 5.8 NE 9 17 5 9 1022.7 1022.7 0.0
18/10:00pm 17.9 15.3 6.1 46 5.8 NE 9 11 5 6 1023.3 1023.3 0.0
18/09:30pm 18.4 15.8 5.9 44 6.2 NE 9 13 5 7 1023.3 1023.3 0.0
18/09:00pm 19.5 17.2 5.6 40 6.8 NNE 7 15 4 8 1023.2 1023.2 0.0
18/08:30pm 19.9 17.7 5.2 38 7.2 NNE 6 13 3 7 1023.1 1023.1 0.0
18/08:00pm 21.5 18.6 4.6 33 8.3 N 9 15 5 8 1023.4 1023.4 0.0
18/07:30pm 22.3 18.6 4.4 31 8.8 N 13 17 7 9 1023.0 1023.0 0.0
18/07:00pm 22.4 18.6 4.0 30 8.9 N 13 20 7 11 1022.5 1022.5 0.0
18/06:30pm 23.3 18.7 3.8 28 9.5 NNW 17 26 9 14 1022.3 1022.3 0.0
18/06:00pm 23.3 19.9 5.7 32 8.9 N 13 22 7 12 1022.2 1022.2 0.0
18/05:30pm 23.7 19.5 5.6 31 9.2 N 17 28 9 15 1021.6 1021.6 0.0
18/05:00pm 23.7 19.9 6.0 32 9.0 N 15 24 8 13 1021.9 1021.9 0.0
18/04:30pm 23.0 18.8 5.9 33 8.7 N 17 28 9 15 1021.9 1021.9 0.0

Latest Capital City Observations: Canberra | Sydney | Melbourne | Brisbane | Adelaide | Perth | Hobart | Darwin

Other Formats:

Comma delimited format used in spreadsheet applications
http://www.bom.gov.au/fwo/IDV60901/IDV60901.95874.axf

JavaScript Object Notation format (JSON) in row-major order
http://www.bom.gov.au/fwo/IDV60901/IDV60901.95874.json